首页
METAR-TAF:

METAR-TAF

机场 :

Cazaux, 法国

纬度: 44-32N, 经度: 001-08W, 海拔: 25米

当前天气观测

该预报发布于21分钟前的15:30 UTC
风速13节,风向北转东北
温度 15°C
湿度 48%
气压 1028 hPa
能见度10公里或以上
1500米以下无云,无积雨云

METAR: LFBC 271530Z AUTO 02013KT CAVOK 15/04 Q1028

时间: 16:51 (15:51 UTC)

预报

该预报发布于25小时和51分钟前的14:00 UTC
预报有效从26日的 15点(UTC)到 27日的 15点(UTC)
风速5节,风向北转东北
能见度10公里或以上
少量云层高于1500英尺
多云层高于2500英尺

TAF: LFBC 261400Z 2615/2715 02005KT 9999 FEW015 BKN025

超过4000个机场的气象观测和天气预报(METAR&TAF报告)。

可查询的气象台以黄色和红色小点在地图上表示。

将鼠标移到小点上方,可查看气象台名称。

然后点击查看天气观测和预报。

如需切换地图:点击带黑十字的绿色按钮放大地图;点击带横线的绿色按钮缩小地图;或者点击绿色箭头查看邻近地区的地图。


METAR-TAF: